KDAA/DAA METAR and TAF weather

Enter ICAO airport designator
Station Type Date Time Source
KDAA METAR 2021/05/12 04:56 UTC NOAA

KDAA 120456Z AUTO 33007G17KT 10SM FEW100 OVC140 14/M03 A3022 RMK AO2 SLP236 T01381030 402060073 $


Station Type Date Time Source
KDAA Decoded METAR 2021/05/12 04:56 UTC NOAA

Fort Belvoir, VA, United States (KDAA) 38-43N 077-11W
May 12, 2021 - 12:56 AM EDT / 2021.05.12 0456 UTC
Wind: from the NNW (330 degrees) at 8 MPH (7 KT) gusting to 20 MPH (17 KT):0
Visibility: 10 mile(s):0
Sky conditions: overcast
Temperature: 56.8 F (13.8 C)
Dew Point: 26.6 F (-3.0 C)
Relative Humidity: 31%
Pressure (altimeter): 30.22 in. Hg (1023 hPa)
ob: KDAA 120456Z AUTO 33007G17KT 10SM FEW100 OVC140 14/M03 A3022 RMK AO2 SLP236 T01381030 402060073
cycle: 5

Station Type Date Time Source
KDAA TAF 2021/05/12 00:55 UTC NOAA

TAF
AMD KDAA 120047Z 1200/1302 33009KT 9999 BKN080 BKN100 QNH3010INS
TEMPO 1200/1204 33012G18KT
BECMG 1203/1204 33009KT 9999 FEW080 SCT100 QNH3010INS
BECMG 1207/1208 VRB06KT 9999 SCT150 QNH3022INS
BECMG 1212/1213 34012G18KT 9999 FEW150 510102 QNH3030INS
BECMG 1223/1224 VRB06KT 9999 SCT060 QNH3020INS TX18/1220Z TN07/1211Z LAST NO
AMDS AFT 1201 NEXT 1212

Example: see airport list